createdAt,value
2022-12-08T00:01:38.705Z,8.52
2022-12-08T00:04:13.270Z,9.20
2022-12-08T00:07:01.336Z,8.98
2022-12-08T00:09:38.689Z,8.55
2022-12-08T00:12:11.663Z,8.60
2022-12-08T00:14:44.041Z,8.48
2022-12-08T00:17:16.891Z,8.35
2022-12-08T00:19:45.887Z,7.80
2022-12-08T00:22:16.428Z,7.93
2022-12-08T00:24:46.644Z,8.05
2022-12-08T00:27:21.154Z,7.15
2022-12-08T00:29:50.806Z,7.15
2022-12-08T00:32:20.963Z,6.90
2022-12-08T00:34:50.676Z,6.90
2022-12-08T00:37:19.303Z,6.88
2022-12-08T00:39:54.658Z,7.32
2022-12-08T00:42:24.322Z,7.15
2022-12-08T00:44:54.908Z,6.95
2022-12-08T00:47:25.192Z,6.88
2022-12-08T00:49:54.218Z,6.97
2022-12-08T00:52:23.884Z,7.40
2022-12-08T00:54:56.567Z,6.80
2022-12-08T00:57:26.089Z,6.38
2022-12-08T00:59:54.957Z,6.30
2022-12-08T01:02:33.578Z,6.25
2022-12-08T01:05:02.209Z,6.70
2022-12-08T01:07:33.418Z,6.60
2022-12-08T01:10:04.479Z,6.35
2022-12-08T01:12:33.506Z,6.22
2022-12-08T01:15:09.235Z,6.47
2022-12-08T01:17:40.359Z,6.20
2022-12-08T01:20:11.180Z,6.35
2022-12-08T01:22:39.794Z,5.10
2022-12-08T01:25:08.887Z,5.63
2022-12-08T01:27:37.667Z,5.60
2022-12-08T01:30:07.490Z,6.35
2022-12-08T01:32:41.478Z,6.53
2022-12-08T01:35:14.438Z,5.88
2022-12-08T01:37:43.088Z,5.85
2022-12-08T01:40:12.347Z,5.30
2022-12-08T01:42:41.074Z,4.85
2022-12-08T01:45:16.835Z,5.25
2022-12-08T01:47:57.810Z,5.03
2022-12-08T01:50:29.884Z,5.22
2022-12-08T01:53:03.179Z,4.90
2022-12-08T01:55:35.050Z,4.97
2022-12-08T01:58:13.883Z,4.70
2022-12-08T02:00:51.553Z,4.93
2022-12-08T02:03:28.810Z,4.68
2022-12-08T02:05:57.439Z,4.22
2022-12-08T02:08:27.640Z,4.72
2022-12-08T02:10:57.344Z,4.15
2022-12-08T02:13:27.249Z,4.63
2022-12-08T02:16:06.983Z,4.90
2022-12-08T02:19:28.928Z,4.80
2022-12-08T02:21:58.787Z,4.22
2022-12-08T02:24:38.146Z,4.28
2022-12-08T02:27:35.328Z,4.22
2022-12-08T02:30:13.623Z,4.00
2022-12-08T02:33:22.698Z,4.40
2022-12-08T02:35:59.926Z,4.15
2022-12-08T02:38:41.965Z,3.97
2022-12-08T02:41:25.617Z,4.25
2022-12-08T02:44:02.066Z,4.13
2022-12-08T02:46:37.352Z,4.75
2022-12-08T02:49:08.659Z,5.10
2022-12-08T02:51:41.003Z,4.38
2022-12-08T02:54:09.979Z,4.43
2022-12-08T02:56:59.669Z,4.65
2022-12-08T02:59:38.309Z,4.35
2022-12-08T03:02:28.422Z,4.63
2022-12-08T03:05:08.178Z,4.25
2022-12-08T03:07:44.451Z,4.47
2022-12-08T03:10:17.896Z,4.43
2022-12-08T03:12:52.057Z,4.82
2022-12-08T03:15:23.267Z,4.88
2022-12-08T03:17:58.293Z,4.75
2022-12-08T03:20:29.617Z,5.07
2022-12-08T03:23:03.891Z,5.88
2022-12-08T03:25:42.827Z,5.60
2022-12-08T03:28:14.757Z,5.38
2022-12-08T03:30:47.852Z,6.10
2022-12-08T03:33:25.055Z,5.53
2022-12-08T03:35:55.793Z,6.00
2022-12-08T03:38:26.008Z,6.40
2022-12-08T03:41:14.439Z,6.57
2022-12-08T03:43:43.089Z,6.45
2022-12-08T03:46:14.944Z,7.45
2022-12-08T03:48:43.541Z,7.15
2022-12-08T03:51:12.644Z,7.10
2022-12-08T03:53:43.335Z,7.90
2022-12-08T03:56:26.870Z,7.63
2022-12-08T03:59:02.761Z,8.52
2022-12-08T04:01:32.650Z,8.90
2022-12-08T04:04:01.237Z,8.43
2022-12-08T04:06:32.112Z,8.85
2022-12-08T04:09:02.208Z,8.05
2022-12-08T04:11:30.890Z,8.23
2022-12-08T04:13:59.472Z,8.07
2022-12-08T04:16:28.793Z,8.48
2022-12-08T04:18:57.521Z,7.72
2022-12-08T04:21:26.376Z,8.13
2022-12-08T04:24:00.774Z,7.35
2022-12-08T04:26:33.626Z,7.90
2022-12-08T04:29:03.138Z,7.82
2022-12-08T04:31:31.982Z,8.23
2022-12-08T04:34:00.812Z,8.10
2022-12-08T04:36:29.418Z,8.48
2022-12-08T04:38:59.544Z,8.50
2022-12-08T04:41:28.106Z,7.85
2022-12-08T04:43:58.323Z,7.45
2022-12-08T04:46:26.796Z,7.35
2022-12-08T04:48:55.225Z,7.90
2022-12-08T04:51:28.016Z,7.50
2022-12-08T04:53:57.487Z,7.55
2022-12-08T04:56:26.087Z,6.88
2022-12-08T04:58:55.686Z,6.97
2022-12-08T05:01:26.878Z,7.68
2022-12-08T05:04:05.255Z,7.88
2022-12-08T05:06:36.967Z,7.80
2022-12-08T05:09:14.715Z,9.30
2022-12-08T05:11:48.566Z,9.77
2022-12-08T05:14:21.599Z,10.13
2022-12-08T05:16:53.670Z,9.55
2022-12-08T05:19:22.346Z,10.35
2022-12-08T05:21:50.957Z,10.90
2022-12-08T05:24:22.307Z,10.45
2022-12-08T05:26:58.555Z,11.25
2022-12-08T05:29:28.009Z,10.30
2022-12-08T05:31:59.710Z,9.70
2022-12-08T05:34:34.454Z,9.15
2022-12-08T05:37:05.935Z,7.68
2022-12-08T05:39:36.666Z,8.88
2022-12-08T05:42:05.604Z,7.95
2022-12-08T05:44:34.296Z,8.00
2022-12-08T05:47:05.450Z,8.00
2022-12-08T05:49:34.236Z,7.38
2022-12-08T05:52:03.945Z,7.70
2022-12-08T05:54:35.718Z,8.18
2022-12-08T05:57:04.356Z,8.60
2022-12-08T05:59:34.144Z,8.45
2022-12-08T06:02:07.424Z,8.30
2022-12-08T06:04:37.827Z,8.25
2022-12-08T06:07:15.961Z,7.80
2022-12-08T06:09:44.934Z,7.05
2022-12-08T06:12:14.624Z,6.68
2022-12-08T06:14:44.025Z,7.35
2022-12-08T06:17:15.126Z,7.65
2022-12-08T06:19:43.898Z,7.75
2022-12-08T06:22:12.476Z,7.68
2022-12-08T06:24:41.127Z,7.75
2022-12-08T06:27:09.616Z,7.30
2022-12-08T06:29:38.215Z,8.07
2022-12-08T06:32:08.196Z,7.90
2022-12-08T06:34:38.883Z,7.25
2022-12-08T06:37:07.746Z,7.63
2022-12-08T06:39:36.338Z,7.00
2022-12-08T06:42:22.478Z,7.85
2022-12-08T06:44:53.097Z,8.05
2022-12-08T06:47:26.197Z,8.23
2022-12-08T06:49:56.717Z,7.28
2022-12-08T06:52:31.329Z,7.65
2022-12-08T06:54:59.840Z,8.05
2022-12-08T06:57:28.394Z,7.25
2022-12-08T06:59:57.843Z,7.72
2022-12-08T07:02:26.524Z,7.85
2022-12-08T07:04:57.836Z,7.28
2022-12-08T07:07:26.301Z,7.50
2022-12-08T07:09:54.734Z,7.57
2022-12-08T07:12:23.448Z,7.38
2022-12-08T07:14:52.529Z,7.88
2022-12-08T07:17:23.801Z,7.75
2022-12-08T07:20:10.720Z,7.93
2022-12-08T07:32:57.889Z,7.90
2022-12-08T08:16:09.923Z,8.75
2022-12-08T08:27:54.866Z,9.25
2022-12-08T08:46:30.854Z,7.97
2022-12-08T09:23:14.854Z,9.73
2022-12-08T16:25:23.217Z,4.22
2022-12-08T16:28:12.370Z,6.53
2022-12-08T16:30:41.726Z,10.20
2022-12-08T16:33:11.770Z,14.15
2022-12-08T16:35:40.965Z,13.93
2022-12-08T16:38:09.759Z,11.20
2022-12-08T16:41:00.320Z,7.28
2022-12-08T16:43:27.776Z,4.90
2022-12-08T16:45:56.853Z,4.63
2022-12-08T16:48:25.410Z,4.60
2022-12-08T16:50:57.590Z,4.60
2022-12-08T16:53:26.149Z,4.82
2022-12-08T16:55:56.215Z,5.90
2022-12-08T16:58:24.962Z,7.75
2022-12-08T17:00:54.669Z,8.18
2022-12-08T17:03:23.209Z,8.20
2022-12-08T17:05:52.811Z,10.73
2022-12-08T17:08:21.442Z,10.43
2022-12-08T17:11:07.686Z,10.68
2022-12-08T17:13:39.921Z,18.15
2022-12-08T17:16:12.296Z,14.15
2022-12-08T17:18:41.282Z,9.88
2022-12-08T17:21:13.483Z,9.85
2022-12-08T17:23:43.172Z,8.50
2022-12-08T17:26:12.431Z,7.50
2022-12-08T17:31:33.838Z,8.00
2022-12-08T17:34:03.195Z,9.10
2022-12-08T17:36:32.711Z,8.60
2022-12-08T17:39:02.471Z,9.38
2022-12-08T17:41:31.262Z,9.20
2022-12-08T17:44:01.567Z,8.77
2022-12-08T17:46:30.264Z,10.05
2022-12-08T17:48:58.726Z,8.98
2022-12-08T17:51:27.755Z,8.48
2022-12-08T17:53:56.312Z,7.93
2022-12-08T17:56:25.138Z,8.13
2022-12-08T17:58:55.007Z,6.82
2022-12-08T18:01:27.794Z,7.40
2022-12-08T18:03:56.352Z,7.40
2022-12-08T18:06:29.630Z,7.45
2022-12-08T18:09:02.347Z,7.07
2022-12-08T18:11:31.690Z,6.63
2022-12-08T18:14:00.698Z,7.40
2022-12-08T18:16:31.806Z,6.70
2022-12-08T18:19:00.479Z,7.75
2022-12-08T18:21:29.036Z,9.50
2022-12-08T18:23:57.881Z,8.45
2022-12-08T18:26:26.412Z,8.27
2022-12-08T18:28:54.941Z,8.77
2022-12-08T18:31:24.592Z,9.73
2022-12-08T18:33:55.525Z,10.23
2022-12-08T18:36:26.871Z,9.77
2022-12-08T18:38:55.956Z,10.95
2022-12-08T18:41:27.193Z,8.45
2022-12-08T18:43:57.913Z,7.93
2022-12-08T18:46:27.143Z,7.53
2022-12-08T18:48:57.225Z,8.50
2022-12-08T18:51:26.939Z,7.50
2022-12-08T18:53:55.540Z,9.73
2022-12-08T18:56:26.794Z,7.82
2022-12-08T18:59:01.274Z,6.47
2022-12-08T19:01:32.670Z,6.40
2022-12-08T19:06:52.581Z,6.55
2022-12-08T19:09:22.825Z,14.60
2022-12-08T19:11:51.391Z,12.38
2022-12-08T19:14:25.733Z,13.07
2022-12-08T19:16:56.570Z,15.40
2022-12-08T19:19:26.962Z,13.15
2022-12-08T19:21:55.689Z,10.10
2022-12-08T19:24:24.649Z,9.88
2022-12-08T19:26:53.835Z,18.05
2022-12-08T19:29:22.962Z,19.60
2022-12-08T19:31:51.825Z,16.63
2022-12-08T19:34:20.583Z,16.77
2022-12-08T19:36:50.580Z,16.77
2022-12-08T19:39:38.432Z,18.23
2022-12-08T19:42:33.255Z,18.83
2022-12-08T19:45:05.623Z,16.15
2022-12-08T19:47:34.681Z,14.18
2022-12-08T19:50:20.537Z,15.30
2022-12-08T19:52:50.542Z,21.33
2022-12-08T19:55:19.665Z,15.85
2022-12-08T19:57:48.631Z,14.50
2022-12-08T20:00:17.786Z,12.35
2022-12-08T20:02:47.312Z,14.00
2022-12-08T20:05:16.787Z,14.05
2022-12-08T20:07:45.992Z,16.42
2022-12-08T20:10:18.186Z,18.55
2022-12-08T20:12:48.797Z,16.40
2022-12-08T20:15:17.570Z,17.23
2022-12-08T20:17:46.048Z,20.38
2022-12-08T20:20:16.184Z,18.50
2022-12-08T20:22:45.464Z,18.67
2022-12-08T20:25:15.637Z,19.20
2022-12-08T20:27:44.727Z,20.58
2022-12-08T20:30:16.985Z,19.35
2022-12-08T20:32:46.283Z,23.35
2022-12-08T20:35:19.477Z,23.52
2022-12-08T20:37:48.226Z,19.98
2022-12-08T20:40:18.671Z,21.02
2022-12-08T20:42:50.593Z,19.95
2022-12-08T20:45:19.387Z,22.13
2022-12-08T20:47:53.763Z,22.00
2022-12-08T20:50:25.304Z,26.95
2022-12-08T20:52:54.008Z,23.75
2022-12-08T20:55:23.962Z,32.50
2022-12-08T20:57:52.607Z,23.10
2022-12-08T21:00:23.528Z,20.50
2022-12-08T21:02:56.567Z,19.42
2022-12-08T21:05:28.268Z,17.95
2022-12-08T21:07:57.071Z,20.33
2022-12-08T21:10:27.394Z,19.73
2022-12-08T21:12:56.125Z,16.75
2022-12-08T21:15:24.929Z,14.18
2022-12-08T21:17:55.346Z,18.15
2022-12-08T21:20:24.266Z,14.95
2022-12-08T21:22:53.101Z,13.57
2022-12-08T21:25:27.626Z,14.45
2022-12-08T21:28:05.906Z,16.95
2022-12-08T21:30:34.561Z,22.95
2022-12-08T21:33:09.247Z,23.50
2022-12-08T21:35:40.666Z,22.17
2022-12-08T21:38:09.675Z,18.00
2022-12-08T21:40:39.964Z,16.52
2022-12-08T21:43:11.618Z,12.80
2022-12-08T21:45:40.573Z,12.35
2022-12-08T21:48:29.135Z,14.07
2022-12-08T21:51:04.852Z,16.02
2022-12-08T21:53:33.672Z,16.02
2022-12-08T21:56:02.283Z,17.58
2022-12-08T21:58:33.070Z,17.75
2022-12-08T22:01:12.599Z,18.10
2022-12-08T22:03:42.421Z,17.40
2022-12-08T22:06:13.852Z,16.55
2022-12-08T22:08:43.850Z,16.48
2022-12-08T22:11:13.911Z,17.25
2022-12-08T22:13:45.104Z,17.40
2022-12-08T22:16:15.602Z,16.20
2022-12-08T22:18:49.415Z,18.48
2022-12-08T22:26:08.261Z,19.13
2022-12-08T22:49:13.650Z,15.63
2022-12-08T22:56:59.297Z,17.33
2022-12-08T23:59:19.916Z,19.23
